createdAt,value
2018-02-08T00:00:26.788Z,61.22
2018-02-08T00:02:55.199Z,53.17
2018-02-08T00:05:22.671Z,60.97
2018-02-08T00:07:50.619Z,56.00
2018-02-08T00:10:18.047Z,54.65
2018-02-08T00:12:45.520Z,53.80
2018-02-08T00:15:13.095Z,57.33
2018-02-08T00:17:40.551Z,59.22
2018-02-08T00:20:08.019Z,58.90
2018-02-08T00:22:45.135Z,63.50
2018-02-08T00:25:12.648Z,61.83
2018-02-08T00:27:40.115Z,60.78
2018-02-08T00:30:07.579Z,55.40
2018-02-08T00:32:35.028Z,59.47
2018-02-08T00:35:02.606Z,62.83
2018-02-08T00:37:30.035Z,54.53
2018-02-08T00:39:57.496Z,57.40
2018-02-08T00:42:24.950Z,55.58
2018-02-08T00:44:52.381Z,56.03
2018-02-08T00:47:19.862Z,55.65
2018-02-08T00:49:47.323Z,58.40
2018-02-08T00:52:14.949Z,50.80
2018-02-08T00:54:42.443Z,53.30
2018-02-08T00:57:09.994Z,56.88
2018-02-08T00:59:37.453Z,56.20
2018-02-08T01:02:04.876Z,53.30
2018-02-08T01:04:32.357Z,51.22
2018-02-08T01:06:59.817Z,48.47
2018-02-08T01:09:27.235Z,47.22
2018-02-08T01:11:54.736Z,55.60
2018-02-08T01:14:22.174Z,57.95
2018-02-08T01:16:49.599Z,51.00
2018-02-08T01:19:17.100Z,55.72
2018-02-08T01:21:45.476Z,59.95
2018-02-08T01:24:13.108Z,55.10
2018-02-08T01:26:40.709Z,62.22
2018-02-08T01:29:08.460Z,56.70
2018-02-08T01:31:36.098Z,53.83
2018-02-08T01:34:03.584Z,55.22
2018-02-08T01:36:31.126Z,53.17
2018-02-08T01:38:58.628Z,61.88
2018-02-08T01:41:26.072Z,58.95
2018-02-08T01:43:53.501Z,55.95
2018-02-08T01:46:20.955Z,50.25
2018-02-08T01:48:48.411Z,57.72
2018-02-08T01:51:15.868Z,54.22
2018-02-08T01:53:43.305Z,60.17
2018-02-08T01:56:10.779Z,50.45
2018-02-08T01:58:38.184Z,57.00
2018-02-08T02:01:05.692Z,59.28
2018-02-08T02:03:33.156Z,53.55
2018-02-08T02:06:00.607Z,59.95
2018-02-08T02:08:28.035Z,56.37
2018-02-08T02:10:56.439Z,56.92
2018-02-08T02:13:23.885Z,59.13
2018-02-08T02:15:51.359Z,52.10
2018-02-08T02:18:18.776Z,54.35
2018-02-08T02:20:46.211Z,55.28
2018-02-08T02:23:14.544Z,58.78
2018-02-08T02:25:41.988Z,56.95
2018-02-08T02:28:09.419Z,54.03
2018-02-08T02:30:36.892Z,57.40
2018-02-08T02:33:04.528Z,53.78
2018-02-08T02:35:31.939Z,59.42
2018-02-08T02:37:59.383Z,55.20
2018-02-08T02:40:26.835Z,58.55
2018-02-08T02:42:54.284Z,59.28
2018-02-08T02:45:21.748Z,53.87
2018-02-08T02:47:49.177Z,52.42
2018-02-08T02:50:17.576Z,50.28
2018-02-08T02:52:45.039Z,57.45
2018-02-08T02:55:12.463Z,55.50
2018-02-08T02:57:39.892Z,54.50
2018-02-08T03:00:07.320Z,61.22
2018-02-08T03:02:34.944Z,55.75
2018-02-08T03:05:02.516Z,62.47
2018-02-08T03:07:29.948Z,51.90
2018-02-08T03:09:57.561Z,58.75
2018-02-08T03:12:25.199Z,63.28
2018-02-08T03:14:52.765Z,56.20
2018-02-08T03:17:20.533Z,57.72
2018-02-08T03:19:47.960Z,64.72
2018-02-08T03:22:15.391Z,57.72
2018-02-08T03:24:42.815Z,63.55
2018-02-08T03:27:10.298Z,57.22
2018-02-08T03:29:37.726Z,59.75
2018-02-08T03:32:05.171Z,63.35
2018-02-08T03:34:32.594Z,51.10
2018-02-08T03:37:00.175Z,54.05
2018-02-08T03:39:27.927Z,63.30
2018-02-08T03:41:55.359Z,51.50
2018-02-08T03:44:22.789Z,51.05
2018-02-08T03:46:50.312Z,55.22
2018-02-08T03:49:17.950Z,56.20
2018-02-08T03:51:45.375Z,53.25
2018-02-08T03:54:13.568Z,57.28
2018-02-08T03:56:41.051Z,55.70
2018-02-08T03:59:08.480Z,54.38
2018-02-08T04:01:35.919Z,52.38
2018-02-08T04:04:03.349Z,56.00
2018-02-08T04:06:30.794Z,51.55
2018-02-08T04:08:58.339Z,62.15
2018-02-08T04:11:25.796Z,55.47
2018-02-08T04:13:53.567Z,56.80
2018-02-08T04:16:21.094Z,55.00
2018-02-08T04:18:48.645Z,58.65
2018-02-08T04:21:16.226Z,57.20
2018-02-08T04:23:43.688Z,57.78
2018-02-08T04:26:11.364Z,54.88
2018-02-08T04:28:38.799Z,56.15
2018-02-08T04:31:06.295Z,52.00
2018-02-08T04:33:33.820Z,52.33
2018-02-08T04:36:01.456Z,56.37
2018-02-08T04:38:40.717Z,53.60
2018-02-08T04:41:20.147Z,54.30
2018-02-08T04:43:59.201Z,52.65
2018-02-08T04:46:38.742Z,53.95
2018-02-08T04:49:06.348Z,57.25
2018-02-08T04:51:33.771Z,53.58
2018-02-08T04:54:01.196Z,54.05
2018-02-08T04:56:28.818Z,51.60
2018-02-08T04:58:56.244Z,58.63
2018-02-08T05:01:23.772Z,52.50
2018-02-08T05:03:51.224Z,59.75
2018-02-08T05:06:18.983Z,57.35
2018-02-08T05:08:46.410Z,57.83
2018-02-08T05:11:13.831Z,54.67
2018-02-08T05:13:41.360Z,52.00
2018-02-08T05:16:08.805Z,50.90
2018-02-08T05:18:36.243Z,51.13
2018-02-08T05:21:03.676Z,58.40
2018-02-08T05:23:31.174Z,56.37
2018-02-08T05:25:58.938Z,58.15
2018-02-08T05:28:26.382Z,49.03
2018-02-08T05:30:53.815Z,51.83
2018-02-08T05:33:21.259Z,59.15
2018-02-08T05:35:48.743Z,51.17
2018-02-08T05:38:16.200Z,56.92
2018-02-08T05:40:43.607Z,57.42
2018-02-08T05:43:11.128Z,57.42
2018-02-08T05:45:38.552Z,55.35
2018-02-08T05:48:05.984Z,55.92
2018-02-08T05:50:33.495Z,57.72
2018-02-08T05:53:00.948Z,53.53
2018-02-08T05:55:28.363Z,55.65
2018-02-08T05:57:55.793Z,61.97
2018-02-08T06:00:23.269Z,58.78
2018-02-08T06:02:50.732Z,53.58
2018-02-08T06:05:18.163Z,50.33
2018-02-08T06:07:45.692Z,58.00
2018-02-08T06:10:13.116Z,53.38
2018-02-08T06:12:40.644Z,62.42
2018-02-08T06:15:08.363Z,54.25
2018-02-08T06:17:35.799Z,50.42
2018-02-08T06:20:03.304Z,51.47
2018-02-08T06:22:30.928Z,58.75
2018-02-08T06:24:58.439Z,53.78
2018-02-08T06:27:25.959Z,52.85
2018-02-08T06:29:53.495Z,50.85
2018-02-08T06:32:20.971Z,53.80
2018-02-08T06:34:48.647Z,55.63
2018-02-08T06:37:16.107Z,57.00
2018-02-08T06:39:43.848Z,60.17
2018-02-08T06:42:11.281Z,57.10
2018-02-08T06:44:38.784Z,50.97
2018-02-08T06:47:06.212Z,58.72
2018-02-08T06:49:33.651Z,54.33
2018-02-08T06:52:01.101Z,58.08
2018-02-08T06:54:28.523Z,53.33
2018-02-08T06:56:55.954Z,52.05
2018-02-08T06:59:23.508Z,53.08
2018-02-08T07:01:50.958Z,54.95
2018-02-08T07:04:18.392Z,48.50
2018-02-08T07:06:45.820Z,48.28
2018-02-08T07:09:13.259Z,58.38
2018-02-08T07:11:40.783Z,52.28
2018-02-08T07:14:08.547Z,54.15
2018-02-08T07:16:36.073Z,51.53
2018-02-08T07:19:03.653Z,52.08
2018-02-08T07:21:31.092Z,53.65
2018-02-08T07:23:58.509Z,53.30
2018-02-08T07:26:26.129Z,61.10
2018-02-08T07:28:53.548Z,49.97
2018-02-08T07:31:20.979Z,55.75
2018-02-08T07:33:48.408Z,50.15
2018-02-08T07:36:15.975Z,58.13
2018-02-08T07:38:43.405Z,52.15
2018-02-08T07:41:10.892Z,54.50
2018-02-08T07:43:38.331Z,55.63
2018-02-08T07:46:05.795Z,58.45
2018-02-08T07:48:33.547Z,49.72
2018-02-08T07:51:00.995Z,54.08
2018-02-08T07:53:28.415Z,47.90
2018-02-08T07:55:55.922Z,60.97
2018-02-08T07:58:23.343Z,51.20
2018-02-08T08:00:50.772Z,57.03
2018-02-08T08:03:18.199Z,49.22
2018-02-08T08:05:45.653Z,48.25
2018-02-08T08:08:13.079Z,56.40
2018-02-08T08:10:40.511Z,51.58
2018-02-08T08:13:08.744Z,50.88
2018-02-08T08:15:36.168Z,51.22
2018-02-08T08:18:03.644Z,54.30
2018-02-08T08:20:31.089Z,45.53
2018-02-08T08:22:58.555Z,53.28
2018-02-08T08:25:26.084Z,45.90
2018-02-08T08:27:53.684Z,51.00
2018-02-08T08:30:21.136Z,50.80
2018-02-08T08:32:48.583Z,52.42
2018-02-08T08:35:16.041Z,51.22
2018-02-08T08:37:43.600Z,50.63
2018-02-08T08:40:11.063Z,52.25
2018-02-08T08:42:38.507Z,50.33
2018-02-08T08:45:05.938Z,53.28
2018-02-08T08:47:33.427Z,48.65
2018-02-08T08:50:00.871Z,53.97
2018-02-08T08:52:28.306Z,55.10
2018-02-08T08:54:55.792Z,54.63
2018-02-08T08:57:23.243Z,53.47
2018-02-08T08:59:50.664Z,57.60
2018-02-08T09:02:18.092Z,58.33
2018-02-08T09:04:45.528Z,56.65
2018-02-08T09:07:12.979Z,54.95
2018-02-08T09:09:40.444Z,53.83
2018-02-08T09:12:07.968Z,54.08
2018-02-08T09:14:35.418Z,55.10
2018-02-08T09:17:03.061Z,52.72
2018-02-08T09:19:31.296Z,55.97
2018-02-08T09:21:58.912Z,55.33
2018-02-08T09:24:26.387Z,50.97
2018-02-08T09:26:53.954Z,50.38
2018-02-08T09:29:21.379Z,45.50
2018-02-08T09:31:48.803Z,50.00
2018-02-08T09:34:16.236Z,53.25
2018-02-08T09:36:43.749Z,50.88
2018-02-08T09:39:11.168Z,51.28
2018-02-08T09:41:38.618Z,51.80
2018-02-08T09:44:06.149Z,53.13
2018-02-08T09:46:33.576Z,52.35
2018-02-08T09:49:01.003Z,55.33
2018-02-08T09:51:28.440Z,43.25
2018-02-08T09:53:55.969Z,57.97
2018-02-08T09:56:23.421Z,51.28
2018-02-08T09:58:50.895Z,51.28
2018-02-08T10:01:18.648Z,47.40
2018-02-08T10:03:46.099Z,46.42
2018-02-08T10:06:13.546Z,50.92
2018-02-08T10:08:41.026Z,54.20
2018-02-08T10:11:08.473Z,48.67
2018-02-08T10:13:35.922Z,56.58
2018-02-08T10:16:03.360Z,50.78
2018-02-08T10:18:30.843Z,48.63
2018-02-08T10:20:58.284Z,44.20
2018-02-08T10:23:25.752Z,51.80
2018-02-08T10:25:53.202Z,49.33
2018-02-08T10:28:20.634Z,53.58
2018-02-08T10:30:48.156Z,52.97
2018-02-08T10:33:15.579Z,51.60
2018-02-08T10:35:43.316Z,58.92
2018-02-08T10:38:10.803Z,49.17
2018-02-08T10:40:38.335Z,52.85
2018-02-08T10:43:06.000Z,54.60
2018-02-08T10:45:33.471Z,51.88
2018-02-08T10:48:01.155Z,48.47
2018-02-08T10:50:28.692Z,46.42
2018-02-08T10:52:56.507Z,58.10
2018-02-08T10:55:23.935Z,50.63
2018-02-08T10:57:51.436Z,45.12
2018-02-08T11:00:18.826Z,44.95
2018-02-08T11:02:46.271Z,55.17
2018-02-08T11:05:13.735Z,50.42
2018-02-08T11:07:41.174Z,51.92
2018-02-08T11:10:08.596Z,49.40
2018-02-08T11:12:36.115Z,48.60
2018-02-08T11:15:03.555Z,51.10
2018-02-08T11:17:31.322Z,53.13
2018-02-08T11:19:58.839Z,52.20
2018-02-08T11:22:26.463Z,48.30
2018-02-08T11:24:53.888Z,49.80
2018-02-08T11:27:21.657Z,52.30
2018-02-08T11:29:49.113Z,47.60
2018-02-08T11:32:16.615Z,54.05
2018-02-08T11:34:44.124Z,51.90
2018-02-08T11:37:11.591Z,51.10
2018-02-08T11:39:39.236Z,54.13
2018-02-08T11:42:06.795Z,47.80
2018-02-08T11:44:34.268Z,55.90
2018-02-08T11:47:03.322Z,53.50
2018-02-08T11:49:31.964Z,59.05
2018-02-08T11:51:59.897Z,53.57
2018-02-08T11:54:29.215Z,51.27
2018-02-08T11:56:56.777Z,51.37
2018-02-08T11:59:24.229Z,51.87
2018-02-08T12:01:51.858Z,51.97
2018-02-08T12:04:19.307Z,55.40
2018-02-08T12:06:46.903Z,48.20
2018-02-08T12:09:14.332Z,52.30
2018-02-08T12:11:41.772Z,49.33
2018-02-08T12:14:09.202Z,52.00
2018-02-08T12:16:36.641Z,52.73
2018-02-08T12:19:04.183Z,55.77
2018-02-08T12:21:31.612Z,50.53
2018-02-08T12:23:59.175Z,52.57
2018-02-08T12:26:26.859Z,55.20
2018-02-08T12:28:54.283Z,48.93
2018-02-08T12:31:21.770Z,44.27
2018-02-08T12:33:49.229Z,48.47
2018-02-08T12:36:17.604Z,45.97
2018-02-08T12:38:45.047Z,49.63
2018-02-08T12:41:12.521Z,47.73
2018-02-08T12:43:39.952Z,49.87
2018-02-08T12:46:07.433Z,42.83
2018-02-08T12:48:34.883Z,52.83
2018-02-08T12:51:02.348Z,53.83
2018-02-08T12:53:29.783Z,51.80
2018-02-08T12:55:57.202Z,50.93
2018-02-08T12:58:24.631Z,47.03
2018-02-08T13:00:52.072Z,49.00
2018-02-08T13:03:19.541Z,51.87
2018-02-08T13:05:47.084Z,49.73
2018-02-08T13:08:14.738Z,47.30
2018-02-08T13:10:42.184Z,54.97
2018-02-08T13:13:10.371Z,50.00
2018-02-08T13:15:37.804Z,55.65
2018-02-08T13:18:05.228Z,52.95
2018-02-08T13:20:32.690Z,52.30
2018-02-08T13:23:00.107Z,54.00
2018-02-08T13:25:27.688Z,47.10
2018-02-08T13:27:56.636Z,45.67
2018-02-08T13:30:24.100Z,46.45
2018-02-08T13:32:51.603Z,44.70
2018-02-08T13:35:19.060Z,44.53
2018-02-08T13:37:47.990Z,48.00
2018-02-08T13:40:17.198Z,51.03
2018-02-08T13:42:44.637Z,45.23
2018-02-08T13:45:12.127Z,40.90
2018-02-08T13:47:45.159Z,44.37
2018-02-08T13:50:18.287Z,45.63
2018-02-08T13:52:51.332Z,45.63
2018-02-08T13:58:33.548Z,48.20
2018-02-08T14:04:04.140Z,43.03
2018-02-08T14:06:31.565Z,43.90
2018-02-08T14:08:59.780Z,41.23
2018-02-08T14:11:27.198Z,46.20
2018-02-08T14:13:54.635Z,48.50
2018-02-08T14:16:22.151Z,43.07
2018-02-08T14:18:49.911Z,45.93
2018-02-08T14:21:17.371Z,45.47
2018-02-08T14:23:44.857Z,47.70
2018-02-08T14:26:12.471Z,47.83
2018-02-08T14:28:39.948Z,50.53
2018-02-08T14:31:07.503Z,44.83
2018-02-08T14:33:34.966Z,47.50
2018-02-08T14:36:02.719Z,42.57
2018-02-08T14:38:30.181Z,49.77
2018-02-08T14:40:57.627Z,47.37
2018-02-08T14:43:25.051Z,47.67
2018-02-08T14:45:52.571Z,46.27
2018-02-08T14:48:19.994Z,47.70
2018-02-08T14:50:47.455Z,46.97
2018-02-08T14:53:14.886Z,51.77
2018-02-08T14:55:42.375Z,47.63
2018-02-08T14:58:09.806Z,43.83
2018-02-08T15:00:37.488Z,45.83
2018-02-08T15:03:04.917Z,55.03
2018-02-08T15:05:32.498Z,47.13
2018-02-08T15:08:00.068Z,48.70
2018-02-08T15:10:27.497Z,47.43
2018-02-08T15:12:55.133Z,50.30
2018-02-08T15:15:22.559Z,52.47
2018-02-08T15:17:50.048Z,50.40
2018-02-08T15:20:17.543Z,49.90
2018-02-08T15:22:45.081Z,51.80
2018-02-08T15:25:12.657Z,54.30
2018-02-08T15:27:40.227Z,49.53
2018-02-08T15:30:07.923Z,55.33
2018-02-08T15:32:35.439Z,55.60
2018-02-08T15:35:02.880Z,58.70
2018-02-08T15:37:30.318Z,56.27
2018-02-08T15:39:57.813Z,52.27
2018-02-08T15:42:25.256Z,51.00
2018-02-08T15:44:52.671Z,55.93
2018-02-08T15:47:20.111Z,53.13
2018-02-08T15:49:48.314Z,51.43
2018-02-08T15:52:16.011Z,49.53
2018-02-08T15:54:43.787Z,55.28
2018-02-08T15:57:11.411Z,62.30
2018-02-08T15:59:38.904Z,54.20
2018-02-08T16:02:06.340Z,54.33
2018-02-08T16:04:33.848Z,57.05
2018-02-08T16:07:01.287Z,54.63
2018-02-08T16:09:28.835Z,49.72
2018-02-08T16:11:56.287Z,51.95
2018-02-08T16:14:23.923Z,48.67
2018-02-08T16:16:51.359Z,63.50
2018-02-08T16:19:18.809Z,55.28
2018-02-08T16:21:47.004Z,49.03
2018-02-08T16:24:14.487Z,53.42
2018-02-08T16:26:42.115Z,57.10
2018-02-08T16:29:09.699Z,51.70
2018-02-08T16:31:37.131Z,54.65
2018-02-08T16:34:04.576Z,55.40
2018-02-08T16:36:32.068Z,55.15
2018-02-08T16:38:59.536Z,58.60
2018-02-08T16:41:26.983Z,61.30
2018-02-08T16:43:54.627Z,65.72
2018-02-08T16:46:22.139Z,63.25
2018-02-08T16:48:49.570Z,57.92
2018-02-08T16:51:17.115Z,67.65
2018-02-08T16:53:44.875Z,64.82
2018-02-08T16:56:12.536Z,61.33
2018-02-08T16:58:39.956Z,68.80
2018-02-08T17:01:08.153Z,56.50
2018-02-08T17:03:35.577Z,64.72
2018-02-08T17:06:03.087Z,65.78
2018-02-08T17:08:30.536Z,60.30
2018-02-08T17:10:57.972Z,63.72
2018-02-08T17:13:25.400Z,74.62
2018-02-08T17:15:52.924Z,71.53
2018-02-08T17:18:20.375Z,71.00
2018-02-08T17:20:47.827Z,71.40
2018-02-08T17:23:15.468Z,69.82
2018-02-08T17:25:42.895Z,66.53
2018-02-08T17:28:11.127Z,76.30
2018-02-08T17:30:38.771Z,74.18
2018-02-08T17:33:06.347Z,69.95
2018-02-08T17:35:33.805Z,70.85
2018-02-08T17:38:01.436Z,71.80
2018-02-08T17:40:28.907Z,61.70
2018-02-08T17:42:56.466Z,69.70
2018-02-08T17:45:23.919Z,64.90
2018-02-08T17:47:51.358Z,64.85
2018-02-08T17:50:18.865Z,60.65
2018-02-08T17:52:46.300Z,65.97
2018-02-08T17:55:13.778Z,71.50
2018-02-08T17:57:41.388Z,68.62
2018-02-08T18:00:08.827Z,63.75
2018-02-08T18:02:36.335Z,59.45
2018-02-08T18:05:03.767Z,67.15
2018-02-08T18:07:31.203Z,62.47
2018-02-08T18:22:14.273Z,78.32
2018-02-08T18:24:41.986Z,77.03
2018-02-08T18:27:09.485Z,78.25
2018-02-08T18:29:37.208Z,71.50
2018-02-08T18:32:04.636Z,73.85
2018-02-08T18:34:32.070Z,83.78
2018-02-08T19:57:57.065Z,61.08
2018-02-08T20:00:24.514Z,66.80
2018-02-08T20:02:51.982Z,57.47
2018-02-08T20:05:19.708Z,58.60
2018-02-08T20:07:47.167Z,64.07
2018-02-08T20:10:14.626Z,66.60
2018-02-08T20:12:42.975Z,67.07
2018-02-08T20:15:11.071Z,66.45
2018-02-08T20:17:38.532Z,65.95
2018-02-08T20:20:06.299Z,69.65
2018-02-08T20:22:33.751Z,66.53
2018-02-08T20:25:01.219Z,65.87
2018-02-08T20:27:28.789Z,62.17
2018-02-08T20:29:56.322Z,63.87
2018-02-08T20:32:23.821Z,59.60
2018-02-08T20:34:51.255Z,59.85
2018-02-08T20:37:18.694Z,59.88
2018-02-08T20:39:46.252Z,62.47
2018-02-08T20:45:12.862Z,62.72
2018-02-08T20:47:40.470Z,60.05
2018-02-08T20:50:07.908Z,66.97
2018-02-08T20:52:35.480Z,62.60
2018-02-08T20:55:02.917Z,58.40
2018-02-08T20:57:30.339Z,61.45
2018-02-08T20:59:57.839Z,62.85
2018-02-08T21:02:25.259Z,66.87
2018-02-08T21:04:52.764Z,78.60
2018-02-08T21:07:20.190Z,62.80
2018-02-08T21:09:47.622Z,69.28
2018-02-08T21:12:15.061Z,69.12
2018-02-08T21:14:42.595Z,60.03
2018-02-08T21:17:10.020Z,73.15
2018-02-08T21:19:37.695Z,64.27
2018-02-08T21:22:05.123Z,73.20
2018-02-08T21:24:32.647Z,68.80
2018-02-08T21:27:01.096Z,70.80
2018-02-08T21:29:28.737Z,63.67
2018-02-08T21:31:56.322Z,70.53
2018-02-08T21:34:24.392Z,68.15
2018-02-08T21:36:52.023Z,60.65
2018-02-08T21:39:19.618Z,73.45
2018-02-08T21:41:47.249Z,64.82
2018-02-08T21:44:15.437Z,73.22
2018-02-08T21:46:42.919Z,63.50
2018-02-08T21:49:10.565Z,74.22
2018-02-08T21:51:38.009Z,62.65
2018-02-08T21:54:05.584Z,73.12
2018-02-08T21:56:33.335Z,65.40
2018-02-08T21:59:00.790Z,60.97
2018-02-08T22:01:28.259Z,65.53
2018-02-08T22:03:55.704Z,71.20
2018-02-08T22:06:23.384Z,64.00
2018-02-08T22:08:50.927Z,70.53
2018-02-08T22:11:18.404Z,68.78
2018-02-08T22:13:46.011Z,72.68
2018-02-08T22:16:13.531Z,69.85
2018-02-08T22:18:41.136Z,64.35
2018-02-08T22:21:08.818Z,63.38
2018-02-08T22:23:36.247Z,63.47
2018-02-08T22:26:03.676Z,65.22
2018-02-08T22:28:31.108Z,66.68
2018-02-08T22:30:58.646Z,67.55
2018-02-08T22:33:26.150Z,67.20
2018-02-08T22:35:53.675Z,65.53
2018-02-08T22:38:21.106Z,57.42
2018-02-08T22:40:48.779Z,62.08
2018-02-08T22:43:16.540Z,57.85
2018-02-08T22:45:44.002Z,66.45
2018-02-08T22:48:11.457Z,65.20
2018-02-08T22:50:39.080Z,68.05
2018-02-08T22:53:06.583Z,58.10
2018-02-08T22:55:34.027Z,65.18
2018-02-08T22:58:01.483Z,55.10
2018-02-08T23:00:28.903Z,67.35
2018-02-08T23:02:56.639Z,73.50
2018-02-08T23:05:24.127Z,65.80
2018-02-08T23:07:51.739Z,66.93
2018-02-08T23:10:19.366Z,62.67
2018-02-08T23:12:46.832Z,69.32
2018-02-08T23:15:14.303Z,61.33
2018-02-08T23:17:41.760Z,60.63
2018-02-08T23:20:09.308Z,68.57
2018-02-08T23:22:36.768Z,60.67
2018-02-08T23:25:04.222Z,64.80
2018-02-08T23:27:31.666Z,63.40
2018-02-08T23:29:59.088Z,66.85
2018-02-08T23:32:26.583Z,66.25
2018-02-08T23:34:54.024Z,59.85
2018-02-08T23:37:21.539Z,62.95
2018-02-08T23:39:49.270Z,71.00
2018-02-08T23:42:16.687Z,74.78
2018-02-08T23:44:44.154Z,69.22
2018-02-08T23:47:12.467Z,65.18
2018-02-08T23:49:39.923Z,74.30
2018-02-08T23:52:07.376Z,66.20
2018-02-08T23:54:34.925Z,68.28
2018-02-08T23:57:02.555Z,70.72
2018-02-08T23:59:30.764Z,68.35
